createdAt,value
2023-05-03T00:03:26.202Z,65.66
2023-05-03T00:07:46.470Z,65.43
2023-05-03T00:12:02.902Z,65.53
2023-05-03T00:16:20.822Z,65.24
2023-05-03T00:20:37.652Z,65.24
2023-05-03T00:24:54.009Z,65.60
2023-05-03T00:29:10.211Z,64.92
2023-05-03T00:33:26.513Z,65.79
2023-05-03T00:37:42.831Z,64.96
2023-05-03T00:42:00.277Z,66.36
2023-05-03T00:46:17.765Z,66.94
2023-05-03T00:50:34.313Z,66.51
2023-05-03T00:54:50.984Z,66.78
2023-05-03T00:59:07.454Z,67.95
2023-05-03T01:03:24.188Z,67.05
2023-05-03T01:08:13.493Z,67.32
2023-05-03T01:12:42.961Z,67.83
2023-05-03T01:17:05.711Z,68.28
2023-05-03T01:21:23.014Z,67.60
2023-05-03T01:25:39.398Z,67.96
2023-05-03T01:29:55.737Z,67.41
2023-05-03T01:34:48.997Z,67.35
2023-05-03T01:39:10.199Z,66.81
2023-05-03T01:43:27.583Z,67.36
2023-05-03T01:47:43.996Z,66.55
2023-05-03T01:52:00.307Z,66.60
2023-05-03T01:56:16.498Z,66.55
2023-05-03T02:00:33.092Z,66.19
2023-05-03T02:04:49.790Z,66.35
2023-05-03T02:09:06.102Z,66.32
2023-05-03T02:13:22.419Z,66.50
2023-05-03T02:17:39.116Z,67.72
2023-05-03T02:21:55.334Z,67.56
2023-05-03T02:26:11.626Z,66.67
2023-05-03T02:30:28.071Z,67.21
2023-05-03T02:34:47.578Z,67.93
2023-05-03T02:39:03.902Z,66.56
2023-05-03T02:43:20.160Z,66.13
2023-05-03T02:47:36.398Z,66.42
2023-05-03T02:51:53.301Z,66.75
2023-05-03T02:56:10.113Z,67.28
2023-05-03T03:00:26.347Z,67.22
2023-05-03T03:04:42.690Z,66.72
2023-05-03T03:08:58.910Z,66.72
2023-05-03T03:13:17.991Z,66.46
2023-05-03T03:17:34.210Z,67.08
2023-05-03T03:21:51.140Z,67.16
2023-05-03T03:26:07.442Z,66.85
2023-05-03T03:30:23.658Z,66.49
2023-05-03T03:34:39.920Z,66.88
2023-05-03T03:38:56.178Z,66.41
2023-05-03T03:43:12.460Z,66.10
2023-05-03T03:47:28.758Z,65.89
2023-05-03T03:51:45.047Z,66.06
2023-05-03T03:56:01.344Z,66.12
2023-05-03T04:00:17.985Z,66.46
2023-05-03T04:04:34.311Z,65.63
2023-05-03T04:08:50.715Z,65.73
2023-05-03T04:13:07.266Z,65.66
2023-05-03T04:17:23.498Z,65.99
2023-05-03T04:21:39.885Z,65.92
2023-05-03T04:25:57.422Z,65.14
2023-05-03T04:30:15.337Z,65.85
2023-05-03T04:34:31.888Z,66.43
2023-05-03T04:38:48.090Z,66.34
2023-05-03T04:43:04.358Z,66.22
2023-05-03T04:47:20.643Z,67.00
2023-05-03T04:51:36.856Z,66.39
2023-05-03T04:55:53.170Z,67.27
2023-05-03T05:00:12.770Z,66.43
2023-05-03T05:04:29.057Z,66.50
2023-05-03T05:08:45.316Z,66.78
2023-05-03T05:13:01.691Z,66.24
2023-05-03T05:17:18.119Z,66.51
2023-05-03T05:21:34.572Z,66.64
2023-05-03T05:25:51.034Z,67.15
2023-05-03T05:30:07.969Z,67.22
2023-05-03T05:34:24.258Z,67.21
2023-05-03T05:38:41.030Z,66.71
2023-05-03T05:42:57.577Z,67.46
2023-05-03T05:47:13.937Z,66.96
2023-05-03T05:51:31.962Z,68.73
2023-05-03T05:55:48.197Z,67.74
2023-05-03T06:00:10.039Z,67.14
2023-05-03T06:04:27.181Z,67.82
2023-05-03T06:08:43.405Z,67.11
2023-05-03T06:12:59.702Z,66.72
2023-05-03T06:17:16.345Z,66.16
2023-05-03T06:21:32.820Z,66.43
2023-05-03T06:25:49.242Z,65.08
2023-05-03T06:30:06.752Z,66.09
2023-05-03T06:34:23.133Z,67.36
2023-05-03T06:38:39.276Z,66.91
2023-05-03T06:42:55.703Z,66.69
2023-05-03T06:47:11.944Z,67.70
2023-05-03T06:51:29.877Z,68.34
2023-05-03T06:55:46.509Z,67.46
2023-05-03T07:00:07.472Z,68.06
2023-05-03T07:04:23.740Z,67.00
2023-05-03T07:08:39.963Z,66.66
2023-05-03T07:12:56.412Z,66.42
2023-05-03T07:17:12.692Z,66.55
2023-05-03T07:21:29.739Z,66.45
2023-05-03T07:25:46.261Z,67.08
2023-05-03T07:30:04.105Z,66.97
2023-05-03T07:34:20.840Z,66.84
2023-05-03T07:38:37.515Z,66.11
2023-05-03T07:42:53.710Z,66.91
2023-05-03T07:47:09.970Z,65.49
2023-05-03T07:51:27.212Z,66.19
2023-05-03T07:55:43.569Z,66.37
2023-05-03T08:00:00.007Z,65.91
2023-05-03T08:04:16.443Z,65.07
2023-05-03T08:08:34.156Z,65.56
2023-05-03T08:12:50.737Z,64.80
2023-05-03T08:17:06.920Z,64.59
2023-05-03T08:21:25.092Z,66.38
2023-05-03T08:25:41.308Z,65.20
2023-05-03T08:34:18.352Z,63.45
2023-05-03T08:38:35.233Z,63.04
2023-05-03T08:42:51.780Z,63.50
2023-05-03T08:47:08.334Z,62.62
2023-05-03T08:51:25.228Z,61.40
2023-05-03T08:55:41.928Z,61.26
2023-05-03T09:00:01.866Z,62.07
2023-05-03T09:04:18.537Z,59.92
2023-05-03T09:08:44.011Z,58.93
2023-05-03T09:13:02.067Z,59.40
2023-05-03T09:17:21.719Z,58.46
2023-05-03T09:21:45.430Z,57.20
2023-05-03T09:26:01.926Z,60.08
2023-05-03T09:30:19.696Z,58.82
2023-05-03T09:34:37.316Z,58.46
2023-05-03T09:38:53.983Z,60.64
2023-05-03T09:43:12.013Z,60.13
2023-05-03T09:47:32.005Z,59.77
2023-05-03T09:51:48.564Z,62.77
2023-05-03T09:56:10.221Z,62.08
2023-05-03T10:00:26.651Z,62.45
2023-05-03T10:04:48.423Z,62.36
2023-05-03T10:09:21.811Z,61.22
2023-05-03T10:13:37.944Z,62.85
2023-05-03T10:17:54.373Z,60.26
2023-05-03T10:22:11.808Z,61.48
2023-05-03T10:26:28.355Z,59.32
2023-05-03T10:30:44.801Z,57.43
2023-05-03T10:35:04.194Z,57.12
2023-05-03T10:39:21.612Z,56.71
2023-05-03T10:43:37.845Z,57.54
2023-05-03T10:48:26.779Z,56.28
2023-05-03T10:52:42.954Z,57.28
2023-05-03T10:57:00.183Z,58.39
2023-05-03T11:01:18.011Z,58.48
2023-05-03T11:05:34.305Z,58.57
2023-05-03T11:09:50.721Z,57.06
2023-05-03T11:14:08.584Z,57.18
2023-05-03T11:18:29.179Z,57.07
2023-05-03T11:22:46.508Z,57.93
2023-05-03T11:27:08.488Z,58.97
2023-05-03T11:31:25.254Z,58.28
2023-05-03T11:35:42.561Z,58.05
2023-05-03T11:39:59.309Z,58.93
2023-05-03T11:44:18.280Z,59.81
2023-05-03T11:48:35.187Z,59.38
2023-05-03T11:52:51.808Z,60.25
2023-05-03T11:57:14.908Z,60.48
2023-05-03T12:01:31.846Z,60.84
2023-05-03T12:05:49.835Z,60.30
2023-05-03T12:10:23.830Z,59.81
2023-05-03T12:15:03.720Z,59.15
2023-05-03T12:19:33.195Z,59.49
2023-05-03T12:23:54.269Z,60.97
2023-05-03T12:32:31.196Z,61.81
2023-05-03T12:36:49.129Z,61.07
2023-05-03T12:41:08.804Z,59.67
2023-05-03T12:45:33.812Z,59.61
2023-05-03T12:49:52.388Z,57.96
2023-05-03T12:54:11.910Z,57.10
2023-05-03T13:07:12.615Z,59.20
2023-05-03T13:11:31.434Z,58.83
2023-05-03T13:15:47.722Z,58.70
2023-05-03T13:20:07.492Z,57.24
2023-05-03T13:24:23.815Z,56.61
2023-05-03T13:28:42.940Z,57.17
2023-05-03T13:33:02.351Z,56.75
2023-05-03T13:37:19.455Z,57.17
2023-05-03T13:41:36.817Z,57.25
2023-05-03T13:46:00.165Z,58.33
2023-05-03T13:50:16.700Z,57.83
2023-05-03T13:54:33.083Z,58.24
2023-05-03T13:58:49.212Z,57.59
2023-05-03T14:03:06.812Z,59.50
2023-05-03T14:07:23.120Z,59.22
2023-05-03T14:11:41.179Z,59.05
2023-05-03T14:15:57.582Z,58.61
2023-05-03T14:20:17.646Z,59.28
2023-05-03T14:24:34.132Z,59.58
2023-05-03T14:28:50.412Z,60.29
2023-05-03T14:33:06.691Z,61.40
2023-05-03T14:37:23.164Z,60.90
2023-05-03T14:41:39.356Z,59.87
2023-05-03T14:45:55.998Z,59.70
2023-05-03T14:50:12.231Z,60.21
2023-05-03T14:54:28.610Z,60.33
2023-05-03T14:58:44.898Z,59.82
2023-05-03T15:03:01.182Z,59.64
2023-05-03T15:07:17.368Z,58.84
2023-05-03T15:11:33.712Z,59.04
2023-05-03T15:15:50.041Z,58.54
2023-05-03T15:20:07.622Z,58.42
2023-05-03T15:24:23.967Z,57.77
2023-05-03T15:28:40.218Z,57.29
2023-05-03T15:32:56.597Z,58.30
2023-05-03T15:37:13.350Z,57.59
2023-05-03T15:41:29.963Z,59.34
2023-05-03T15:45:46.321Z,58.37
2023-05-03T15:50:03.219Z,58.87
2023-05-03T15:54:19.899Z,58.79
2023-05-03T15:58:36.953Z,59.05
2023-05-03T16:02:53.441Z,58.34
2023-05-03T16:07:09.890Z,58.27
2023-05-03T16:11:26.085Z,58.48
2023-05-03T16:15:42.521Z,58.13
2023-05-03T16:19:58.827Z,59.00
2023-05-03T16:24:15.236Z,59.43
2023-05-03T16:28:31.435Z,59.64
2023-05-03T16:32:48.489Z,60.16
2023-05-03T16:37:05.469Z,60.23
2023-05-03T16:41:21.784Z,60.51
2023-05-03T16:45:38.084Z,61.27
2023-05-03T16:49:54.466Z,60.38
2023-05-03T16:54:12.144Z,59.28
2023-05-03T16:58:28.372Z,60.81
2023-05-03T17:02:44.832Z,59.27
2023-05-03T17:07:01.294Z,59.53
2023-05-03T17:11:17.483Z,58.61
2023-05-03T17:15:33.976Z,58.91
2023-05-03T17:19:50.293Z,59.31
2023-05-03T17:24:06.895Z,58.62
2023-05-03T17:28:23.248Z,59.03
2023-05-03T17:32:39.477Z,60.51
2023-05-03T17:36:59.261Z,59.54
2023-05-03T17:41:15.502Z,58.57
2023-05-03T17:45:31.749Z,58.28
2023-05-03T17:49:48.037Z,58.24
2023-05-03T17:54:04.385Z,58.49
2023-05-03T17:58:21.131Z,58.19
2023-05-03T18:02:37.457Z,59.09
2023-05-03T18:06:54.414Z,59.12
2023-05-03T18:11:10.660Z,59.30
2023-05-03T18:15:26.907Z,60.12
2023-05-03T18:19:46.169Z,59.21
2023-05-03T18:24:03.031Z,60.80
2023-05-03T18:28:21.160Z,59.95
2023-05-03T18:32:37.756Z,59.34
2023-05-03T18:36:54.146Z,59.78
2023-05-03T18:41:16.063Z,59.76
2023-05-03T18:45:32.333Z,59.71
2023-05-03T18:49:52.946Z,62.01
2023-05-03T18:54:10.177Z,60.40
2023-05-03T18:58:26.466Z,59.77
2023-05-03T19:02:42.738Z,60.44
2023-05-03T19:06:58.978Z,61.23
2023-05-03T19:11:16.190Z,61.06
2023-05-03T19:15:32.505Z,60.23
2023-05-03T19:19:48.694Z,59.83
2023-05-03T19:24:05.208Z,60.26
2023-05-03T19:28:22.564Z,60.46
2023-05-03T19:32:39.315Z,60.04
2023-05-03T19:36:55.789Z,60.36
2023-05-03T19:41:14.580Z,60.73
2023-05-03T19:45:30.953Z,60.97
2023-05-03T19:49:47.203Z,60.18
2023-05-03T19:54:03.698Z,59.73
2023-05-03T19:58:19.918Z,59.25
2023-05-03T20:02:38.146Z,59.39
2023-05-03T20:06:54.482Z,60.11
2023-05-03T20:11:10.861Z,60.37
2023-05-03T20:15:27.059Z,59.93
2023-05-03T20:19:43.994Z,59.96
2023-05-03T20:24:00.398Z,59.77
2023-05-03T20:28:16.690Z,59.80
2023-05-03T20:32:33.085Z,59.37
2023-05-03T20:36:49.430Z,59.02
2023-05-03T20:41:05.702Z,60.27
2023-05-03T20:45:22.450Z,58.72
2023-05-03T20:49:40.434Z,59.57
2023-05-03T20:53:56.749Z,60.68
2023-05-03T20:58:13.005Z,61.36
2023-05-03T21:02:29.466Z,62.74
2023-05-03T21:06:45.855Z,63.57
2023-05-03T21:11:02.419Z,63.76
2023-05-03T21:15:18.757Z,63.70
2023-05-03T21:19:35.010Z,63.60
2023-05-03T21:23:51.511Z,63.88
2023-05-03T21:28:07.774Z,63.23
2023-05-03T21:32:24.066Z,63.79
2023-05-03T21:36:40.543Z,64.55
2023-05-03T21:41:09.376Z,64.91
2023-05-03T21:45:25.648Z,64.93
2023-05-03T21:49:41.816Z,65.27
2023-05-03T21:53:58.079Z,65.13
2023-05-03T21:58:14.876Z,65.05
2023-05-03T22:02:31.237Z,64.54
2023-05-03T22:06:47.905Z,64.72
2023-05-03T22:11:07.398Z,64.41
2023-05-03T22:15:23.810Z,64.79
2023-05-03T22:19:40.208Z,64.76
2023-05-03T22:23:56.448Z,65.21
2023-05-03T22:28:12.896Z,65.20
2023-05-03T22:32:29.288Z,65.72
2023-05-03T22:36:45.732Z,65.61
2023-05-03T22:41:02.084Z,65.00
2023-05-03T22:45:18.634Z,65.55
2023-05-03T22:49:34.872Z,66.05
2023-05-03T22:53:51.138Z,65.57
2023-05-03T22:58:07.495Z,65.84
2023-05-03T23:02:23.821Z,66.25
2023-05-03T23:06:40.144Z,65.47
2023-05-03T23:10:59.467Z,65.58
2023-05-03T23:15:16.660Z,66.17
2023-05-03T23:19:34.004Z,67.05
2023-05-03T23:23:50.302Z,66.86
2023-05-03T23:28:06.657Z,66.96
2023-05-03T23:32:23.721Z,67.07
2023-05-03T23:36:40.774Z,66.94
2023-05-03T23:40:56.997Z,66.71
2023-05-03T23:45:13.377Z,66.95
2023-05-03T23:49:29.560Z,66.66
2023-05-03T23:53:46.022Z,66.31
2023-05-03T23:58:02.434Z,66.70
